Time;durP1;ratioP1;P1;durP2;ratioP2;P2;SDS_P1;SDS_P2;PMS_P1;PMS_P2;Temp;Humidity;BMP_temperature;BMP_pressure;BME280_temperature;BME280_humidity;BME280_pressure;Samples;Min_cycle;Max_cycle;Signal;HPM_P1;HPM_P2
2024/03/21 00:01:24;;;;;;;9.10;3.27;;;11.20;99.90;;;;;;5092752;28;20776;-60
2024/03/21 00:03:50;;;;;;;4.47;2.90;;;11.20;99.90;;;;;;5093038;28;20223;-60
2024/03/21 00:06:19;;;;;;;4.90;2.80;;;11.20;99.90;;;;;;5092768;28;20207;-60
2024/03/21 00:08:44;;;;;;;6.27;3.27;;;11.30;99.90;;;;;;5093186;28;20204;-60
2024/03/21 00:11:11;;;;;;;5.13;2.83;;;11.20;99.90;;;;;;5092885;28;20587;-60
2024/03/21 00:13:37;;;;;;;4.00;3.20;;;11.30;99.90;;;;;;5092675;28;20206;-60
2024/03/21 00:16:05;;;;;;;6.20;2.73;;;11.30;99.90;;;;;;5092692;28;20200;-60
2024/03/21 00:18:33;;;;;;;3.97;2.90;;;11.30;99.90;;;;;;5092826;28;20212;-61
2024/03/21 00:20:59;;;;;;;4.10;2.87;;;11.30;99.90;;;;;;5092597;28;20246;-60
2024/03/21 00:23:25;;;;;;;6.27;3.20;;;11.40;99.90;;;;;;5092827;28;20224;-60
2024/03/21 00:25:52;;;;;;;3.20;2.80;;;11.40;99.90;;;;;;5092272;28;20566;-60
2024/03/21 00:28:18;;;;;;;6.43;2.67;;;11.40;99.90;;;;;;5092700;28;20669;-60
2024/03/21 00:30:47;;;;;;;6.50;2.63;;;11.50;99.90;;;;;;5092736;28;20227;-60
2024/03/21 00:33:13;;;;;;;3.80;2.63;;;11.50;99.90;;;;;;5093081;28;20231;-60
2024/03/21 00:35:41;;;;;;;6.40;3.23;;;11.50;99.90;;;;;;5092200;28;20281;-60
2024/03/21 00:38:06;;;;;;;9.80;3.40;;;11.40;99.90;;;;;;5092441;28;20208;-61
2024/03/21 00:40:33;;;;;;;7.53;3.00;;;11.40;99.90;;;;;;5092407;28;20576;-60
2024/03/21 00:42:59;;;;;;;5.87;3.27;;;11.40;99.90;;;;;;5091971;28;20224;-60
2024/03/21 00:45:26;;;;;;;2.87;2.40;;;11.40;99.90;;;;;;5091843;28;20738;-60
2024/03/21 00:47:52;;;;;;;3.27;2.67;;;11.50;99.90;;;;;;5092516;28;20204;-61
2024/03/21 00:50:19;;;;;;;7.10;3.33;;;11.50;99.90;;;;;;5092322;28;20228;-61
2024/03/21 00:52:46;;;;;;;4.00;2.90;;;11.50;99.90;;;;;;5092194;28;20279;-62
2024/03/21 00:55:13;;;;;;;5.33;2.90;;;11.50;99.90;;;;;;5092007;28;20207;-59
2024/03/21 00:57:39;;;;;;;4.50;2.87;;;11.50;99.90;;;;;;5093885;28;20208;-61
2024/03/21 01:00:07;;;;;;;4.17;2.50;;;11.50;99.90;;;;;;5094654;28;20224;-60
2024/03/21 01:02:34;;;;;;;4.20;2.77;;;11.50;99.90;;;;;;5093410;28;20208;-62
2024/03/21 01:05:01;;;;;;;3.87;2.60;;;11.50;99.90;;;;;;5094674;28;20263;-62
2024/03/21 01:07:27;;;;;;;4.93;2.40;;;11.60;99.90;;;;;;5095236;28;20223;-60
2024/03/21 01:09:55;;;;;;;2.90;2.40;;;11.50;99.90;;;;;;5095311;28;20227;-60
2024/03/21 01:12:21;;;;;;;3.30;2.57;;;11.50;99.90;;;;;;5095283;28;20211;-60
2024/03/21 01:14:47;;;;;;;5.40;2.67;;;11.40;99.90;;;;;;5095662;28;20200;-60
2024/03/21 01:17:13;;;;;;;4.17;2.40;;;11.40;99.90;;;;;;5095522;28;20204;-58
2024/03/21 01:19:40;;;;;;;3.47;2.53;;;11.40;99.90;;;;;;5094943;28;20213;-60
2024/03/21 01:22:05;;;;;;;4.70;2.83;;;11.30;99.90;;;;;;5092696;28;20216;-60
2024/03/21 01:24:32;;;;;;;4.53;2.63;;;11.30;99.90;;;;;;5091583;28;20228;-61
2024/03/21 01:26:59;;;;;;;3.17;2.70;;;11.30;99.90;;;;;;5091677;28;20216;-60
2024/03/21 01:29:26;;;;;;;2.63;2.43;;;11.30;99.90;;;;;;5091711;28;20207;-60
2024/03/21 01:31:52;;;;;;;4.53;2.50;;;11.30;99.90;;;;;;5091831;28;20632;-61
2024/03/21 01:34:19;;;;;;;3.33;2.53;;;11.20;99.90;;;;;;5091751;28;20283;-60
2024/03/21 01:36:46;;;;;;;3.97;2.93;;;11.10;99.90;;;;;;5091270;28;20688;-60
2024/03/21 01:39:13;;;;;;;5.83;2.53;;;11.00;99.90;;;;;;5091589;28;20669;-63
2024/03/21 01:41:39;;;;;;;4.17;2.70;;;10.80;99.90;;;;;;5091645;28;20605;-61
2024/03/21 01:44:15;;;;;;;3.77;2.73;;;10.80;99.90;;;;;;5091677;28;20228;-60
2024/03/21 01:46:40;;;;;;;4.80;2.60;;;10.70;99.90;;;;;;5091478;28;20207;-60
2024/03/21 01:49:07;;;;;;;2.73;2.20;;;10.70;99.90;;;;;;5092952;28;20211;-60
2024/03/21 01:51:33;;;;;;;3.73;2.47;;;10.60;99.90;;;;;;5095333;28;20273;-60
2024/03/21 01:54:01;;;;;;;4.67;2.80;;;10.60;99.90;;;;;;5095661;28;20253;-60
2024/03/21 01:56:27;;;;;;;4.20;2.83;;;10.50;99.90;;;;;;5095316;28;20219;-60
2024/03/21 01:58:53;;;;;;;5.60;2.63;;;10.40;99.90;;;;;;5095395;28;20196;-60
2024/03/21 02:01:25;;;;;;;4.90;2.67;;;10.50;99.90;;;;;;5095031;28;20239;-61
2024/03/21 02:03:53;;;;;;;3.60;2.80;;;10.50;99.90;;;;;;5095201;28;20260;-60
2024/03/21 02:06:19;;;;;;;4.63;2.70;;;10.40;99.90;;;;;;5095047;28;20204;-60
2024/03/21 02:08:46;;;;;;;5.10;2.80;;;10.40;99.90;;;;;;5095678;28;20196;-60
2024/03/21 02:11:12;;;;;;;3.87;2.60;;;10.40;99.90;;;;;;5094892;28;20713;-60
2024/03/21 02:13:39;;;;;;;3.67;2.80;;;10.40;99.90;;;;;;5095061;28;20203;-61
2024/03/21 02:16:04;;;;;;;3.23;2.50;;;10.40;99.90;;;;;;5094794;28;20212;-60
2024/03/21 02:18:32;;;;;;;4.43;2.53;;;10.40;99.90;;;;;;5094897;28;20204;-59
2024/03/21 02:20:58;;;;;;;4.87;2.97;;;10.40;99.90;;;;;;5095144;28;20231;-60
2024/03/21 02:23:26;;;;;;;2.70;2.30;;;10.40;99.90;;;;;;5095092;28;20223;-61
2024/03/21 02:25:55;;;;;;;3.10;2.40;;;10.40;99.90;;;;;;5094886;28;20204;-60
2024/03/21 02:28:20;;;;;;;3.07;2.47;;;10.40;99.90;;;;;;5095059;28;20204;-61
2024/03/21 02:30:48;;;;;;;4.77;2.47;;;10.30;99.90;;;;;;5094811;28;20227;-60
2024/03/21 02:33:13;;;;;;;4.53;2.80;;;10.40;99.90;;;;;;5094528;28;20208;-60
2024/03/21 02:35:40;;;;;;;5.33;2.43;;;10.30;99.90;;;;;;5094397;28;20207;-60
2024/03/21 02:38:06;;;;;;;5.13;2.47;;;10.30;99.90;;;;;;5094688;28;20666;-60
2024/03/21 02:40:34;;;;;;;2.90;2.43;;;10.30;99.90;;;;;;5094700;28;20227;-60
2024/03/21 02:42:59;;;;;;;3.17;2.67;;;10.30;99.90;;;;;;5094453;28;20208;-60
2024/03/21 02:45:26;;;;;;;3.03;2.33;;;10.30;99.90;;;;;;5094229;28;20200;-61
2024/03/21 02:47:52;;;;;;;3.57;2.60;;;10.30;99.90;;;;;;5094532;28;20207;-61
2024/03/21 02:50:18;;;;;;;3.40;2.53;;;10.30;99.90;;;;;;5094450;28;20216;-60
2024/03/21 02:52:44;;;;;;;3.60;2.87;;;10.40;99.90;;;;;;5094558;28;20241;-60
2024/03/21 02:55:11;;;;;;;4.27;2.70;;;10.40;99.90;;;;;;5094269;28;20192;-60
2024/03/21 02:57:38;;;;;;;3.30;2.50;;;10.50;99.90;;;;;;5094376;28;20209;-60
2024/03/21 03:00:05;;;;;;;4.23;2.67;;;10.50;99.90;;;;;;5092937;28;20240;-61
2024/03/21 03:02:31;;;;;;;5.57;2.73;;;10.40;99.90;;;;;;5094058;28;20587;-61
2024/03/21 03:04:58;;;;;;;2.40;2.20;;;10.50;99.90;;;;;;5094211;28;20223;-61
2024/03/21 03:07:24;;;;;;;3.07;2.23;;;10.60;99.90;;;;;;5094437;28;20207;-61
2024/03/21 03:09:50;;;;;;;5.43;2.20;;;10.60;99.90;;;;;;5094180;28;20224;-61
2024/03/21 03:12:17;;;;;;;5.60;3.00;;;10.70;99.90;;;;;;5093996;28;20261;-61
2024/03/21 03:14:44;;;;;;;3.27;2.50;;;10.70;99.90;;;;;;5094000;28;20273;-61
2024/03/21 03:17:10;;;;;;;4.87;2.90;;;10.80;99.90;;;;;;5093559;28;20581;-61
2024/03/21 03:19:36;;;;;;;3.47;2.80;;;10.90;99.90;;;;;;5093841;28;20560;-61
2024/03/21 03:22:03;;;;;;;4.53;2.80;;;10.90;99.90;;;;;;5094033;28;20203;-61
2024/03/21 03:24:29;;;;;;;2.70;2.47;;;10.90;99.90;;;;;;5093656;28;20569;-61
2024/03/21 03:26:55;;;;;;;3.90;3.10;;;11.00;99.90;;;;;;5093607;28;20208;-61
2024/03/21 03:29:21;;;;;;;5.60;3.50;;;10.90;99.90;;;;;;5093741;28;20207;-61
2024/03/21 03:31:49;;;;;;;5.20;3.70;;;10.90;99.90;;;;;;5093510;28;20220;-61
2024/03/21 03:37:00;;;;;;;3.90;3.50;;;10.90;99.90;;;;;;5093520;28;20329;-61
2024/03/21 03:39:26;;;;;;;3.63;3.33;;;11.00;99.90;;;;;;5093545;28;20520;-61
2024/03/21 03:41:53;;;;;;;6.63;3.57;;;11.10;99.90;;;;;;5093349;28;20802;-61
2024/03/21 03:44:20;;;;;;;4.80;3.47;;;11.10;99.90;;;;;;5093288;28;20220;-61
2024/03/21 03:46:47;;;;;;;6.90;4.00;;;10.90;99.90;;;;;;5093202;28;20204;-61
2024/03/21 03:49:15;;;;;;;5.17;3.90;;;10.80;99.90;;;;;;5093483;28;20711;-61
2024/03/21 03:51:40;;;;;;;5.60;3.60;;;10.80;99.90;;;;;;5093377;28;20224;-61
2024/03/21 03:54:07;;;;;;;4.67;3.63;;;10.80;99.90;;;;;;5093434;28;20203;-61
2024/03/21 03:56:32;;;;;;;6.40;3.73;;;10.80;99.90;;;;;;5092895;28;20216;-61
2024/03/21 03:58:59;;;;;;;5.20;3.70;;;10.80;99.90;;;;;;5093409;28;20662;-61
2024/03/21 04:01:25;;;;;;;6.40;3.60;;;10.60;99.90;;;;;;5093204;28;20228;-61
2024/03/21 04:03:51;;;;;;;10.47;3.93;;;10.60;99.90;;;;;;5093233;28;20228;-61
2024/03/21 04:06:18;;;;;;;6.40;3.97;;;10.70;99.90;;;;;;5092822;28;20261;-60
2024/03/21 04:08:45;;;;;;;6.57;4.20;;;10.80;99.90;;;;;;5093016;28;20211;-59
2024/03/21 04:11:14;;;;;;;4.73;3.20;;;10.80;99.90;;;;;;5092317;28;20269;-59
2024/03/21 04:13:41;;;;;;;5.47;4.13;;;10.80;99.90;;;;;;5092979;28;20198;-60
2024/03/21 04:16:11;;;;;;;4.80;4.30;;;10.80;99.90;;;;;;5092683;28;20208;-60
2024/03/21 04:18:37;;;;;;;9.40;5.90;;;10.80;99.90;;;;;;5092787;28;20235;-60
2024/03/21 04:21:04;;;;;;;5.10;4.30;;;10.80;99.90;;;;;;5092775;28;20220;-59
2024/03/21 04:23:32;;;;;;;5.80;3.70;;;10.80;99.90;;;;;;5092370;28;20228;-59
2024/03/21 04:25:57;;;;;;;5.73;3.70;;;10.80;99.90;;;;;;5092640;28;20200;-59
2024/03/21 04:28:24;;;;;;;5.00;3.50;;;10.70;99.90;;;;;;5092779;28;20233;-59
2024/03/21 04:30:50;;;;;;;5.03;3.90;;;10.70;99.90;;;;;;5092543;28;20679;-59
2024/03/21 04:33:17;;;;;;;5.33;3.83;;;10.70;99.90;;;;;;5092798;28;20312;-60
2024/03/21 04:35:42;;;;;;;4.33;3.27;;;10.70;99.90;;;;;;5092696;28;20211;-60
2024/03/21 04:38:09;;;;;;;5.93;3.37;;;10.70;99.90;;;;;;5092719;28;20200;-59
2024/03/21 04:40:37;;;;;;;6.70;4.00;;;10.70;99.90;;;;;;5092730;28;20220;-59
2024/03/21 04:43:04;;;;;;;4.83;3.87;;;10.70;99.90;;;;;;5092819;28;20204;-60
2024/03/21 04:45:31;;;;;;;5.90;4.03;;;10.70;99.90;;;;;;5092387;28;20224;-60
2024/03/21 04:47:57;;;;;;;5.80;3.70;;;10.70;99.90;;;;;;5092787;28;20212;-60
2024/03/21 04:50:24;;;;;;;6.13;3.73;;;10.80;99.90;;;;;;5092257;28;20227;-60
2024/03/21 04:52:50;;;;;;;4.50;3.70;;;10.80;99.90;;;;;;5092225;28;20204;-60
2024/03/21 04:55:17;;;;;;;4.17;3.40;;;10.80;99.90;;;;;;5092335;28;20522;-60
2024/03/21 04:57:46;;;;;;;5.40;3.47;;;10.80;99.90;;;;;;5092368;28;20212;-60
2024/03/21 05:00:13;;;;;;;10.57;5.43;;;10.70;99.90;;;;;;5092005;28;20262;-60
2024/03/21 05:02:39;;;;;;;6.27;3.50;;;10.70;99.90;;;;;;5092229;28;20208;-60
2024/03/21 05:05:06;;;;;;;6.77;3.50;;;10.60;99.90;;;;;;5091898;28;20219;-60
2024/03/21 05:07:32;;;;;;;7.20;3.17;;;10.60;99.90;;;;;;5091927;28;20208;-60
2024/03/21 05:09:59;;;;;;;4.67;3.13;;;10.50;99.90;;;;;;5092079;28;20235;-60
2024/03/21 05:12:25;;;;;;;4.77;2.90;;;10.50;99.90;;;;;;5091964;28;20561;-60
2024/03/21 05:14:54;;;;;;;8.17;5.57;;;10.50;99.90;;;;;;5092074;28;20282;-60
2024/03/21 05:17:20;;;;;;;6.70;3.10;;;10.40;99.90;;;;;;5091679;28;20253;-60
2024/03/21 05:19:47;;;;;;;5.23;2.60;;;10.50;99.90;;;;;;5091865;28;20285;-60
2024/03/21 05:22:13;;;;;;;3.73;2.80;;;10.50;99.90;;;;;;5092174;28;20208;-60
2024/03/21 05:24:39;;;;;;;5.80;2.53;;;10.50;99.90;;;;;;5094269;28;20235;-60
2024/03/21 05:27:06;;;;;;;5.73;2.80;;;10.40;99.90;;;;;;5095917;28;20254;-60
2024/03/21 05:29:33;;;;;;;4.00;2.63;;;10.30;99.90;;;;;;5095980;28;20207;-61
2024/03/21 05:32:00;;;;;;;4.00;3.00;;;10.20;99.90;;;;;;5095936;28;20554;-60
2024/03/21 05:34:27;;;;;;;3.20;2.63;;;10.20;99.90;;;;;;5095921;28;20204;-60
2024/03/21 05:36:52;;;;;;;3.50;2.40;;;10.10;99.90;;;;;;5095993;28;20245;-61
2024/03/21 05:39:19;;;;;;;3.43;2.37;;;10.20;99.90;;;;;;5096113;28;20204;-61
2024/03/21 05:41:45;;;;;;;3.73;2.70;;;10.30;99.90;;;;;;5095593;28;20720;-61
2024/03/21 05:44:11;;;;;;;3.57;2.97;;;10.30;99.90;;;;;;5095721;28;20273;-60
2024/03/21 05:46:38;;;;;;;5.27;2.67;;;10.40;99.90;;;;;;5095372;28;20208;-60
2024/03/21 05:49:05;;;;;;;5.97;3.00;;;10.30;99.90;;;;;;5095539;28;20639;-60
2024/03/21 05:51:32;;;;;;;3.63;2.83;;;10.40;99.90;;;;;;5095733;28;20623;-60
2024/03/21 05:53:58;;;;;;;6.77;3.40;;;10.40;99.90;;;;;;5095551;28;20615;-60
2024/03/21 05:56:24;;;;;;;8.00;2.80;;;10.50;99.90;;;;;;5095430;28;20207;-61
2024/03/21 05:58:50;;;;;;;8.40;2.90;;;10.60;99.90;;;;;;5095399;28;20281;-61
2024/03/21 06:01:32;;;;;;;5.33;2.50;;;10.70;99.90;;;;;;5095251;28;20721;-60
2024/03/21 06:03:58;;;;;;;4.83;2.60;;;10.80;99.90;;;;;;5095418;28;21523;-60
2024/03/21 06:06:26;;;;;;;6.30;2.90;;;10.80;99.90;;;;;;5095287;28;20253;-60
2024/03/21 06:08:51;;;;;;;4.97;2.53;;;10.90;99.90;;;;;;5095302;28;20208;-60
2024/03/21 06:11:18;;;;;;;4.70;3.60;;;11.00;99.90;;;;;;5095137;28;20243;-61
2024/03/21 06:13:44;;;;;;;5.43;2.90;;;11.20;99.90;;;;;;5095035;28;20576;-61
2024/03/21 06:16:11;;;;;;;4.20;3.00;;;11.30;99.90;;;;;;5095631;28;20197;-61
2024/03/21 06:18:36;;;;;;;5.80;2.80;;;11.50;99.90;;;;;;5095553;28;20248;-61
2024/03/21 06:21:03;;;;;;;3.27;2.60;;;11.70;99.90;;;;;;5095476;28;20224;-60
2024/03/21 06:23:30;;;;;;;4.33;2.60;;;11.80;99.90;;;;;;5095364;28;20208;-60
2024/03/21 06:25:57;;;;;;;4.50;2.77;;;11.90;99.90;;;;;;5094998;28;20247;-60
2024/03/21 06:28:23;;;;;;;5.33;2.70;;;12.00;99.90;;;;;;5094934;28;20269;-60
2024/03/21 06:30:50;;;;;;;5.90;3.10;;;12.10;99.90;;;;;;5094901;28;20709;-59
2024/03/21 06:33:16;;;;;;;4.57;2.63;;;12.20;99.90;;;;;;5095213;28;20560;-59
2024/03/21 06:35:42;;;;;;;4.17;3.17;;;12.20;99.90;;;;;;5094339;28;20242;-60
2024/03/21 06:38:08;;;;;;;4.37;2.60;;;12.20;99.90;;;;;;5095080;28;20204;-60
2024/03/21 06:40:36;;;;;;;2.87;2.30;;;12.20;99.90;;;;;;5094601;28;20227;-59
2024/03/21 06:43:02;;;;;;;4.83;3.00;;;12.20;99.90;;;;;;5094562;28;20231;-59
2024/03/21 06:45:28;;;;;;;4.50;3.30;;;12.20;99.90;;;;;;5094186;28;20693;-60
2024/03/21 06:47:56;;;;;;;10.63;2.90;;;12.30;99.90;;;;;;5094710;28;20208;-59
2024/03/21 06:50:23;;;;;;;5.57;2.83;;;12.40;99.90;;;;;;5094563;28;20223;-59
2024/03/21 06:52:50;;;;;;;5.73;2.90;;;12.50;99.90;;;;;;5094455;28;20200;-59
2024/03/21 06:55:18;;;;;;;4.47;2.73;;;12.60;99.90;;;;;;5094103;28;20199;-60
2024/03/21 06:57:48;;;;;;;6.70;3.17;;;12.80;99.90;;;;;;5093484;28;20215;-58
2024/03/21 07:00:16;;;;;;;7.03;2.80;;;12.90;99.90;;;;;;5094205;28;20231;-58
2024/03/21 07:02:42;;;;;;;5.37;3.00;;;13.00;99.90;;;;;;5094228;28;20235;-58
2024/03/21 07:05:10;;;;;;;5.27;2.50;;;13.20;99.90;;;;;;5093707;28;20705;-58
2024/03/21 07:07:36;;;;;;;4.83;3.17;;;13.20;99.90;;;;;;5093901;28;20735;-59
2024/03/21 07:10:03;;;;;;;3.73;2.57;;;13.30;99.90;;;;;;5093910;28;20311;-58
2024/03/21 07:12:29;;;;;;;5.47;3.17;;;13.40;99.90;;;;;;5093527;28;20574;-58
2024/03/21 07:14:58;;;;;;;7.80;3.60;;;13.40;99.90;;;;;;5094053;28;20257;-58
2024/03/21 07:17:24;;;;;;;8.03;3.77;;;13.40;99.90;;;;;;5093673;28;20249;-59
2024/03/21 07:19:51;;;;;;;9.27;3.30;;;13.60;99.90;;;;;;5093850;28;20220;-59
2024/03/21 07:22:17;;;;;;;4.47;2.87;;;13.80;99.90;;;;;;5094147;28;20212;-58
2024/03/21 07:24:44;;;;;;;6.80;3.57;;;13.90;99.90;;;;;;5093672;28;20697;-58
2024/03/21 07:27:10;;;;;;;6.10;3.37;;;14.10;99.90;;;;;;5093276;28;20212;-59
2024/03/21 07:29:36;;;;;;;10.13;3.90;;;14.20;99.90;;;;;;5093398;28;20200;-59
2024/03/21 07:32:04;;;;;;;5.80;3.20;;;14.20;99.90;;;;;;5093402;28;20625;-59
2024/03/21 07:34:31;;;;;;;5.13;3.53;;;14.30;99.90;;;;;;5093437;28;20232;-59
2024/03/21 07:36:57;;;;;;;4.70;3.30;;;14.40;99.90;;;;;;5093669;28;20204;-59
2024/03/21 07:39:23;;;;;;;5.40;3.20;;;14.40;99.90;;;;;;5093510;28;20223;-59
2024/03/21 07:41:49;;;;;;;4.83;3.20;;;14.60;99.90;;;;;;5093068;28;20204;-58
2024/03/21 07:44:16;;;;;;;3.47;2.90;;;14.70;99.90;;;;;;5093193;28;20231;-59
2024/03/21 07:46:42;;;;;;;6.73;3.10;;;14.90;99.90;;;;;;5092576;28;20209;-58
2024/03/21 07:49:10;;;;;;;5.57;3.00;;;15.30;99.90;;;;;;5093216;28;20676;-59
2024/03/21 07:51:36;;;;;;;5.07;2.70;;;15.80;99.90;;;;;;5093150;28;20228;-59
2024/03/21 07:54:03;;;;;;;7.97;2.63;;;16.30;99.90;;;;;;5093139;28;20579;-59
2024/03/21 07:56:29;;;;;;;5.90;3.03;;;16.60;99.90;;;;;;5092544;28;20665;-59
2024/03/21 07:58:56;;;;;;;7.05;3.45;;;16.70;99.90;;;;;;5093101;28;20269;-59
2024/03/21 08:01:24;;;;;;;10.97;3.53;;;16.60;99.90;;;;;;5092881;28;20763;-59
2024/03/21 08:03:51;;;;;;;8.00;3.37;;;16.70;99.90;;;;;;5092984;28;20237;-59
2024/03/21 08:06:18;;;;;;;4.63;2.92;;;16.70;99.90;;;;;;5092490;28;20227;-59
2024/03/21 08:08:45;;;;;;;5.05;3.20;;;16.70;99.90;;;;;;5092824;28;20228;-58
2024/03/21 08:11:11;;;;;;;6.90;3.10;;;16.60;99.90;;;;;;5092873;28;20219;-59
2024/03/21 08:13:40;;;;;;;4.63;3.17;;;16.70;99.90;;;;;;5092679;28;20204;-57
2024/03/21 08:16:06;;;;;;;4.30;3.30;;;16.80;99.90;;;;;;5092726;28;20303;-58
2024/03/21 08:18:33;;;;;;;5.32;3.28;;;17.00;99.90;;;;;;5092860;28;20748;-58
2024/03/21 08:20:58;;;;;;;5.30;3.10;;;17.00;99.90;;;;;;5092457;28;20728;-59
2024/03/21 08:23:27;;;;;;;4.75;3.15;;;17.10;99.90;;;;;;5092630;28;20203;-58
2024/03/21 08:25:52;;;;;;;5.18;3.25;;;17.00;99.90;;;;;;5092346;28;20621;-60
2024/03/21 08:28:19;;;;;;;8.70;4.35;;;17.20;99.90;;;;;;5092339;28;20200;-59
2024/03/21 08:30:46;;;;;;;5.82;2.90;;;17.30;99.90;;;;;;5092264;28;20269;-60
2024/03/21 08:33:14;;;;;;;4.93;3.00;;;17.50;99.90;;;;;;5092313;28;20208;-59
2024/03/21 08:35:40;;;;;;;8.35;3.53;;;17.80;99.90;;;;;;5092074;28;20696;-59
2024/03/21 08:38:07;;;;;;;4.25;2.90;;;17.70;99.90;;;;;;5092382;28;20204;-59
2024/03/21 08:40:34;;;;;;;8.13;2.80;;;17.70;99.90;;;;;;5092508;28;20285;-59
2024/03/21 08:43:01;;;;;;;5.35;2.95;;;18.00;99.90;;;;;;5092112;28;20231;-59
2024/03/21 08:45:26;;;;;;;4.47;3.15;;;17.90;99.90;;;;;;5091957;28;20365;-59
2024/03/21 08:47:53;;;;;;;5.60;3.20;;;17.60;99.90;;;;;;5091975;28;20669;-59
2024/03/21 08:50:19;;;;;;;5.85;3.15;;;17.30;99.90;;;;;;5091999;28;20266;-59
2024/03/21 08:52:46;;;;;;;10.43;3.22;;;17.10;99.90;;;;;;5092317;28;20196;-59
2024/03/21 08:55:13;;;;;;;5.20;2.88;;;17.00;99.90;;;;;;5091907;28;20200;-59
2024/03/21 08:57:41;;;;;;;7.63;3.65;;;17.20;99.90;;;;;;5091907;28;20204;-59
2024/03/21 09:00:08;;;;;;;5.05;2.80;;;17.30;99.90;;;;;;5091697;28;20247;-59
2024/03/21 09:02:34;;;;;;;4.97;3.20;;;17.60;99.90;;;;;;5092196;28;20208;-59
2024/03/21 09:05:00;;;;;;;6.15;3.30;;;17.80;99.90;;;;;;5091647;28;20220;-58
2024/03/21 09:07:27;;;;;;;4.55;3.25;;;18.10;99.90;;;;;;5092116;28;20200;-59
2024/03/21 09:09:53;;;;;;;4.78;3.10;;;18.20;99.90;;;;;;5091870;28;20297;-59
2024/03/21 09:12:19;;;;;;;5.07;3.33;;;18.50;99.90;;;;;;5091841;28;20497;-59
2024/03/21 09:14:46;;;;;;;9.38;3.30;;;18.60;99.90;;;;;;5091717;28;20201;-59
2024/03/21 09:17:13;;;;;;;4.45;3.05;;;18.90;99.90;;;;;;5091557;28;20277;-59
2024/03/21 09:19:39;;;;;;;5.40;2.80;;;19.20;99.90;;;;;;5091698;28;20232;-59
2024/03/21 09:22:05;;;;;;;5.68;3.00;;;19.30;99.90;;;;;;5091726;28;20693;-59
2024/03/21 09:24:31;;;;;;;4.70;3.05;;;19.30;99.90;;;;;;5091730;28;20220;-59
2024/03/21 09:26:58;;;;;;;5.43;3.25;;;19.10;99.90;;;;;;5091502;28;20204;-59
2024/03/21 09:29:24;;;;;;;9.20;3.70;;;19.00;99.90;;;;;;5091714;28;20204;-59
2024/03/21 09:31:53;;;;;;;5.13;3.15;;;19.00;99.90;;;;;;5091500;28;20200;-59
2024/03/21 09:34:19;;;;;;;5.45;3.28;;;19.30;99.90;;;;;;5091623;28;20204;-59
2024/03/21 09:36:48;;;;;;;5.82;3.10;;;19.60;99.90;;;;;;5091613;28;20222;-59
2024/03/21 09:39:14;;;;;;;8.32;3.53;;;19.80;99.90;;;;;;5091775;28;20211;-59
2024/03/21 09:41:41;;;;;;;6.28;3.50;;;19.80;99.90;;;;;;5091939;28;20231;-59
2024/03/21 09:44:13;;;;;;;11.88;3.83;;;20.00;99.90;;;;;;5091557;28;20589;-59
2024/03/21 09:46:42;;;;;;;7.75;3.95;;;20.40;99.90;;;;;;5091223;28;20231;-59
2024/03/21 09:49:13;;;;;;;5.78;3.67;;;20.60;99.90;;;;;;5091630;28;20208;-59
2024/03/21 09:51:40;;;;;;;6.57;3.47;;;20.60;99.90;;;;;;5091647;28;20574;-59
2024/03/21 09:54:09;;;;;;;10.98;4.00;;;20.50;99.90;;;;;;5091433;28;20204;-59
2024/03/21 09:56:36;;;;;;;7.57;3.55;;;20.60;99.90;;;;;;5091190;28;20200;-59
2024/03/21 09:59:02;;;;;;;16.83;4.80;;;20.80;99.90;;;;;;5091332;28;20204;-59
2024/03/21 10:01:29;;;;;;;11.25;4.03;;;20.90;99.90;;;;;;5083418;22;20252;-59
2024/03/21 10:03:56;;;;;;;5.47;3.67;;;20.90;99.90;;;;;;5051178;28;20208;-58
2024/03/21 10:06:25;;;;;;;4.68;3.80;;;20.90;99.90;;;;;;5050977;28;20271;-57
2024/03/21 10:08:51;;;;;;;7.43;4.35;;;20.80;99.90;;;;;;5042933;28;20340;-57
2024/03/21 10:11:18;;;;;;;5.38;4.28;;;20.60;99.90;;;;;;5054224;28;20256;-59
2024/03/21 10:13:45;;;;;;;8.13;3.92;;;20.30;99.90;;;;;;5054437;28;20209;-60
2024/03/21 10:16:13;;;;;;;7.78;4.15;;;20.00;99.90;;;;;;5054411;28;20267;-62
2024/03/21 10:18:39;;;;;;;7.40;4.68;;;19.90;99.90;;;;;;5054365;28;20584;-61
2024/03/21 10:21:13;;;;;;;7.53;4.65;;;19.70;99.90;;;;;;5054660;28;20232;-63
2024/03/21 10:23:40;;;;;;;5.25;4.30;;;19.70;99.90;;;;;;5054582;28;20210;-61
2024/03/21 10:26:13;;;;;;;8.80;4.80;;;19.70;99.90;;;;;;5053959;28;20297;-60
2024/03/21 10:28:39;;;;;;;6.70;5.18;;;19.90;99.90;;;;;;5054442;28;20686;-61
2024/03/21 10:31:12;;;;;;;6.05;4.95;;;20.00;99.90;;;;;;5054196;28;20790;-62
2024/03/21 10:33:38;;;;;;;6.90;5.80;;;20.20;99.90;;;;;;5054416;28;20215;-59
2024/03/21 10:36:05;;;;;;;7.90;5.05;;;20.30;99.90;;;;;;5054041;28;20660;-60
2024/03/21 10:38:31;;;;;;;7.90;4.97;;;20.20;99.90;;;;;;5054341;28;20236;-60
2024/03/21 10:41:04;;;;;;;6.88;5.18;;;20.00;99.90;;;;;;5054207;28;20691;-62
2024/03/21 10:43:33;;;;;;;6.80;5.70;;;20.20;99.90;;;;;;5054507;28;20467;-60
2024/03/21 10:46:02;;;;;;;9.40;6.00;;;20.30;99.90;;;;;;5054280;28;20632;-60
2024/03/21 10:48:29;;;;;;;10.57;5.75;;;20.60;99.90;;;;;;5053983;28;20642;-60
2024/03/21 10:50:56;;;;;;;7.32;5.38;;;20.80;99.90;;;;;;5053750;28;20263;-61
2024/03/21 10:53:22;;;;;;;7.65;5.95;;;21.10;99.90;;;;;;5053851;28;20201;-61
2024/03/21 10:55:50;;;;;;;8.45;5.63;;;21.40;99.90;;;;;;5053721;28;20288;-61
2024/03/21 10:58:19;;;;;;;6.63;5.28;;;21.30;99.90;;;;;;5054052;28;20224;-65
2024/03/21 11:00:53;;;;;;;7.85;5.95;;;21.60;99.90;;;;;;5053408;28;20232;-59
2024/03/21 11:03:19;;;;;;;8.45;5.95;;;22.00;99.90;;;;;;5053783;28;20210;-60
2024/03/21 11:05:48;;;;;;;8.77;5.65;;;22.10;99.90;;;;;;5053346;28;20597;-60
2024/03/21 11:08:27;;;;;;;11.55;5.57;;;21.90;99.90;;;;;;5053804;28;20206;-59
2024/03/21 11:10:56;;;;;;;8.90;4.82;;;21.70;99.90;;;;;;5045441;28;20217;-59
2024/03/21 11:13:25;;;;;;;5.93;4.88;;;21.40;99.90;;;;;;5053475;28;20210;-59
2024/03/21 11:15:53;;;;;;;8.23;4.50;;;21.50;99.90;;;;;;5053122;28;20194;-60
2024/03/21 11:18:19;;;;;;;18.33;4.70;;;21.50;99.90;;;;;;5053339;28;20218;-59
2024/03/21 11:20:46;;;;;;;10.50;4.93;;;21.20;99.90;;;;;;5052907;28;20221;-59
2024/03/21 11:23:14;;;;;;;8.20;5.25;;;20.80;99.90;;;;;;5053140;28;20205;-59
2024/03/21 11:25:40;;;;;;;9.50;6.40;;;20.40;99.90;;;;;;5053217;28;20221;-59
2024/03/21 11:28:11;;;;;;;8.77;6.75;;;20.10;99.90;;;;;;5053204;28;20293;-59
2024/03/21 11:30:43;;;;;;;10.57;6.80;;;19.80;99.90;;;;;;5053060;28;20225;-59
2024/03/21 11:33:10;;;;;;;11.23;7.90;;;19.40;99.90;;;;;;5053057;28;20296;-62
2024/03/21 11:35:39;;;;;;;13.63;9.27;;;19.30;99.90;;;;;;5052979;28;20212;-61
2024/03/21 11:38:06;;;;;;;11.55;8.60;;;19.20;99.90;;;;;;5052968;28;20205;-59
2024/03/21 11:40:33;;;;;;;10.45;8.70;;;18.90;99.90;;;;;;5052823;28;20234;-59
2024/03/21 11:43:06;;;;;;;11.20;8.27;;;18.60;99.90;;;;;;5052973;28;20201;-59
2024/03/21 11:45:33;;;;;;;12.45;9.57;;;18.30;99.90;;;;;;5052265;28;20229;-59
2024/03/21 11:48:11;;;;;;;14.38;9.70;;;18.30;99.90;;;;;;5052958;28;20201;-59
2024/03/21 11:50:39;;;;;;;10.70;8.98;;;18.50;99.90;;;;;;5052704;28;20257;-60
2024/03/21 11:53:05;;;;;;;9.95;8.95;;;18.90;99.90;;;;;;5052780;28;20256;-59
2024/03/21 11:55:31;;;;;;;12.20;10.40;;;19.30;99.90;;;;;;5052540;28;20201;-59
2024/03/21 11:57:57;;;;;;;12.65;9.98;;;19.30;99.90;;;;;;5052664;28;20208;-58
2024/03/21 12:00:24;;;;;;;13.63;9.82;;;19.20;99.90;;;;;;5052676;28;20226;-60
2024/03/21 12:02:51;;;;;;;17.00;10.50;;;19.00;99.90;;;;;;5052773;28;20205;-60
2024/03/21 12:05:19;;;;;;;11.77;9.93;;;18.90;99.90;;;;;;5049938;28;20299;-61
2024/03/21 12:07:45;;;;;;;15.05;11.43;;;18.60;99.90;;;;;;5052130;28;20293;-61
2024/03/21 12:10:13;;;;;;;14.98;12.90;;;18.30;99.90;;;;;;5052133;28;20625;-62
2024/03/21 12:12:39;;;;;;;18.77;13.15;;;18.00;99.90;;;;;;5051756;28;20214;-62
2024/03/21 12:15:08;;;;;;;15.88;12.57;;;17.70;99.90;;;;;;5051906;28;20284;-62
2024/03/21 12:17:34;;;;;;;16.90;13.55;;;17.50;99.90;;;;;;5051841;28;20587;-61
2024/03/21 12:20:01;;;;;;;19.23;14.55;;;17.50;99.90;;;;;;5052077;28;20218;-62
2024/03/21 12:22:28;;;;;;;15.27;13.25;;;17.50;99.90;;;;;;5052134;28;20212;-61
2024/03/21 12:24:56;;;;;;;18.23;13.38;;;17.50;99.90;;;;;;5043692;28;20202;-61
2024/03/21 12:27:22;;;;;;;15.02;12.55;;;17.50;99.90;;;;;;5051494;28;20264;-61
2024/03/21 12:29:49;;;;;;;15.98;12.32;;;17.70;99.90;;;;;;5051986;28;20206;-61
2024/03/21 12:32:14;;;;;;;15.98;12.57;;;17.90;99.90;;;;;;5051461;28;20299;-61
2024/03/21 12:34:42;;;;;;;12.75;11.38;;;17.90;99.90;;;;;;5051630;28;20672;-61
2024/03/21 12:37:09;;;;;;;16.02;12.25;;;17.90;99.90;;;;;;5051737;28;20204;-60
2024/03/21 12:39:37;;;;;;;15.52;11.95;;;18.10;99.90;;;;;;5051754;28;20202;-62
2024/03/21 12:42:03;;;;;;;14.05;11.23;;;18.30;99.90;;;;;;5052175;28;20228;-62
2024/03/21 12:44:29;;;;;;;16.00;11.60;;;18.40;99.90;;;;;;5051826;28;20213;-62
2024/03/21 12:46:56;;;;;;;12.23;10.82;;;18.50;99.90;;;;;;5051947;28;20304;-62